Time;durP1;ratioP1;P1;durP2;ratioP2;P2;SDS_P1;SDS_P2;PMS_P1;PMS_P2;Temp;Humidity;BMP_temperature;BMP_pressure;BME280_temperature;BME280_humidity;BME280_pressure;Samples;Min_cycle;Max_cycle;Signal;HPM_P1;HPM_P2
2021/10/23 00:01:33;;;;;;;4.10;1.33;;;8.20;98.90;;;;;;5002238;28;20422;-60
2021/10/23 00:03:59;;;;;;;3.65;1.38;;;8.30;98.90;;;;;;5004945;28;20053;-60
2021/10/23 00:06:24;;;;;;;5.50;1.50;;;8.20;98.90;;;;;;5016663;28;20076;-61
2021/10/23 00:08:49;;;;;;;3.15;1.23;;;8.10;98.90;;;;;;5018331;28;20025;-60
2021/10/23 00:11:15;;;;;;;2.92;1.50;;;8.10;99.00;;;;;;5015636;28;20030;-60
2021/10/23 00:13:41;;;;;;;4.72;1.45;;;8.00;99.00;;;;;;5018998;28;20030;-60
2021/10/23 00:16:07;;;;;;;5.65;2.00;;;8.00;99.00;;;;;;5008243;28;20022;-60
2021/10/23 00:18:33;;;;;;;5.13;1.63;;;8.00;99.10;;;;;;4998431;28;20058;-60
2021/10/23 00:20:58;;;;;;;3.03;1.60;;;8.00;99.10;;;;;;5013972;28;20053;-60
2021/10/23 00:23:24;;;;;;;2.65;1.58;;;7.90;99.10;;;;;;5018046;28;20026;-60
2021/10/23 00:25:49;;;;;;;6.03;2.33;;;7.90;99.10;;;;;;5009441;28;20045;-60
2021/10/23 00:28:15;;;;;;;3.05;1.50;;;7.90;99.10;;;;;;5014075;28;20105;-60
2021/10/23 00:30:40;;;;;;;4.22;2.33;;;8.00;99.10;;;;;;4999969;28;20740;-60
2021/10/23 00:33:06;;;;;;;2.38;1.42;;;8.00;99.20;;;;;;5019536;28;20056;-60
2021/10/23 00:35:32;;;;;;;2.67;1.38;;;7.90;99.10;;;;;;5004196;28;20025;-60
2021/10/23 00:38:00;;;;;;;5.18;1.85;;;7.90;99.10;;;;;;5014308;28;20100;-60
2021/10/23 00:40:25;;;;;;;5.70;1.58;;;7.90;99.10;;;;;;5013579;28;20029;-60
2021/10/23 00:42:52;;;;;;;4.47;1.95;;;7.90;99.10;;;;;;5003881;28;20022;-60
2021/10/23 00:45:18;;;;;;;4.97;1.95;;;8.00;99.20;;;;;;5016550;28;20053;-60
2021/10/23 00:47:43;;;;;;;2.70;1.40;;;7.90;99.10;;;;;;5013328;28;20551;-61
2021/10/23 00:50:09;;;;;;;4.72;1.70;;;7.90;99.10;;;;;;5013801;28;20034;-60
2021/10/23 00:52:35;;;;;;;3.47;1.73;;;7.90;99.10;;;;;;5023082;28;20053;-60
2021/10/23 00:55:01;;;;;;;4.22;1.80;;;7.90;99.20;;;;;;5018831;28;20041;-60
2021/10/23 00:57:27;;;;;;;4.75;1.55;;;7.90;99.20;;;;;;5021790;28;20017;-60
2021/10/23 00:59:52;;;;;;;6.18;1.88;;;7.90;99.20;;;;;;5018895;28;20488;-60
2021/10/23 01:02:18;;;;;;;5.22;2.33;;;7.90;99.20;;;;;;5019069;28;20020;-61
2021/10/23 01:04:43;;;;;;;8.25;2.75;;;7.90;99.20;;;;;;5003854;28;20367;-60
2021/10/23 01:07:09;;;;;;;6.75;3.03;;;7.80;99.30;;;;;;5018284;28;20022;-60
2021/10/23 01:09:38;;;;;;;8.90;3.22;;;7.70;99.40;;;;;;5014651;28;20104;-60
2021/10/23 01:12:06;;;;;;;6.93;2.17;;;7.70;99.60;;;;;;5013247;28;20497;-60
2021/10/23 01:14:31;;;;;;;5.55;2.35;;;7.60;99.60;;;;;;5015226;28;20022;-60
2021/10/23 01:16:57;;;;;;;4.95;1.92;;;7.70;99.70;;;;;;5015694;28;20432;-60
2021/10/23 01:19:23;;;;;;;5.65;2.47;;;7.70;99.70;;;;;;5013224;28;20022;-60
2021/10/23 01:21:50;;;;;;;5.57;2.33;;;7.60;99.70;;;;;;5021034;28;20010;-60
2021/10/23 01:24:18;;;;;;;4.97;2.28;;;7.70;99.80;;;;;;5019470;28;20024;-60
2021/10/23 01:26:44;;;;;;;5.15;1.90;;;7.70;99.90;;;;;;5015337;28;20049;-60
2021/10/23 01:29:11;;;;;;;4.78;1.90;;;7.70;99.80;;;;;;5000756;28;20022;-60
2021/10/23 01:31:36;;;;;;;4.95;2.10;;;7.60;99.80;;;;;;5024096;28;20028;-60
2021/10/23 01:34:12;;;;;;;3.30;1.40;;;7.70;99.80;;;;;;5006485;28;20034;-60
2021/10/23 01:36:47;;;;;;;4.20;1.80;;;7.70;99.80;;;;;;5017098;28;20034;-60
2021/10/23 01:39:13;;;;;;;3.60;1.70;;;7.70;99.80;;;;;;5024178;28;20101;-60
2021/10/23 01:41:39;;;;;;;4.95;1.88;;;7.70;99.80;;;;;;5021369;28;20034;-60
2021/10/23 01:44:07;;;;;;;4.47;1.65;;;7.70;99.80;;;;;;5014940;28;20021;-60
2021/10/23 01:46:32;;;;;;;4.05;1.95;;;7.70;99.80;;;;;;5005511;28;20025;-60
2021/10/23 01:48:58;;;;;;;4.93;1.70;;;7.70;99.80;;;;;;5014791;28;20026;-60
2021/10/23 01:51:23;;;;;;;5.80;2.10;;;7.60;99.70;;;;;;5017650;28;20489;-60
2021/10/23 01:53:49;;;;;;;3.88;1.98;;;7.60;99.80;;;;;;5015958;28;20022;-60
2021/10/23 01:56:14;;;;;;;6.82;2.65;;;7.50;99.80;;;;;;5002146;28;20481;-60
2021/10/23 01:58:40;;;;;;;4.38;2.40;;;7.50;99.90;;;;;;5015133;28;20030;-60
2021/10/23 02:01:05;;;;;;;6.22;2.40;;;7.50;99.90;;;;;;5012125;28;20030;-60
2021/10/23 02:03:31;;;;;;;5.63;2.22;;;7.40;99.90;;;;;;5020631;28;20025;-60
2021/10/23 02:05:56;;;;;;;4.68;2.85;;;7.40;99.90;;;;;;5002295;28;20018;-60
2021/10/23 02:08:22;;;;;;;6.70;2.40;;;7.40;99.90;;;;;;5016613;28;20118;-60
2021/10/23 02:10:47;;;;;;;7.68;2.47;;;7.40;99.90;;;;;;5013928;28;20046;-60
2021/10/23 02:13:13;;;;;;;5.22;2.30;;;7.40;99.90;;;;;;5012641;28;20017;-60
2021/10/23 02:15:38;;;;;;;6.03;2.28;;;7.40;99.90;;;;;;4989084;28;20034;-60
2021/10/23 02:18:04;;;;;;;7.30;2.83;;;7.40;99.90;;;;;;5019810;28;20026;-60
2021/10/23 02:20:33;;;;;;;4.70;2.90;;;7.30;99.90;;;;;;5011710;28;20489;-60
2021/10/23 02:23:00;;;;;;;4.60;2.10;;;7.40;99.90;;;;;;5000437;28;20021;-60
2021/10/23 02:25:25;;;;;;;5.00;2.15;;;7.40;99.90;;;;;;5004626;28;20456;-60
2021/10/23 02:27:51;;;;;;;5.45;2.40;;;7.40;99.90;;;;;;5002057;28;20029;-60
2021/10/23 02:30:17;;;;;;;4.82;2.53;;;7.40;99.90;;;;;;5014606;28;20072;-60
2021/10/23 02:32:42;;;;;;;3.80;2.20;;;7.40;99.90;;;;;;5002968;28;20030;-60
2021/10/23 02:35:08;;;;;;;6.18;2.33;;;7.40;99.90;;;;;;5011626;28;20594;-60
2021/10/23 02:37:34;;;;;;;3.70;2.30;;;7.40;99.90;;;;;;4996707;28;20034;-60
2021/10/23 02:40:00;;;;;;;6.60;2.70;;;7.40;99.90;;;;;;5016953;28;20025;-60
2021/10/23 02:42:26;;;;;;;3.38;1.90;;;7.40;99.90;;;;;;5017136;28;20420;-60
2021/10/23 02:44:52;;;;;;;5.90;2.30;;;7.40;99.90;;;;;;5014632;28;20017;-60
2021/10/23 02:47:17;;;;;;;4.75;2.65;;;7.40;99.90;;;;;;5014904;28;20088;-60
2021/10/23 02:49:43;;;;;;;7.03;2.60;;;7.40;99.90;;;;;;5014984;28;20038;-60
2021/10/23 02:52:08;;;;;;;5.45;2.63;;;7.40;99.90;;;;;;5019992;28;20104;-60
2021/10/23 02:54:34;;;;;;;6.03;3.08;;;7.30;99.90;;;;;;5022145;28;20038;-60
2021/10/23 02:56:59;;;;;;;6.05;2.65;;;7.40;99.90;;;;;;5001064;28;20032;-60
2021/10/23 02:59:25;;;;;;;6.03;2.92;;;7.30;99.90;;;;;;5011299;28;20030;-60
2021/10/23 03:01:51;;;;;;;5.03;2.72;;;7.30;99.90;;;;;;5011554;28;20025;-60
2021/10/23 03:04:16;;;;;;;5.55;2.60;;;7.30;99.90;;;;;;5011314;28;20034;-60
2021/10/23 03:06:44;;;;;;;8.90;3.13;;;7.30;99.90;;;;;;5021095;28;20065;-60
2021/10/23 03:09:14;;;;;;;5.15;2.78;;;7.30;99.90;;;;;;5015842;28;20017;-60
2021/10/23 03:11:39;;;;;;;5.20;3.35;;;7.30;99.90;;;;;;5002014;28;20026;-60
2021/10/23 03:14:05;;;;;;;5.35;2.92;;;7.20;99.90;;;;;;5011170;28;20026;-60
2021/10/23 03:16:31;;;;;;;5.60;3.13;;;7.20;99.90;;;;;;5016539;28;20014;-60
2021/10/23 03:18:56;;;;;;;6.00;3.03;;;7.20;99.90;;;;;;5001797;28;20524;-60
2021/10/23 03:21:22;;;;;;;4.70;3.08;;;7.20;99.90;;;;;;5019651;28;20414;-60
2021/10/23 03:23:47;;;;;;;5.18;2.97;;;7.20;99.90;;;;;;5011515;28;20056;-60
2021/10/23 03:26:13;;;;;;;6.15;2.75;;;7.20;99.90;;;;;;4995489;28;20068;-60
2021/10/23 03:28:39;;;;;;;6.97;3.28;;;7.20;99.90;;;;;;5005861;28;20394;-60
2021/10/23 03:31:04;;;;;;;6.10;3.40;;;7.20;99.90;;;;;;5011364;28;20385;-60
2021/10/23 03:33:30;;;;;;;4.15;2.70;;;7.20;99.90;;;;;;5011067;28;20493;-60
2021/10/23 03:35:55;;;;;;;5.70;3.55;;;7.10;99.90;;;;;;5012915;28;20025;-60
2021/10/23 03:38:21;;;;;;;6.13;3.33;;;7.10;99.90;;;;;;5024221;28;20033;-60
2021/10/23 03:40:47;;;;;;;5.25;4.13;;;7.10;99.90;;;;;;5010607;28;20029;-60
2021/10/23 03:43:12;;;;;;;9.57;5.22;;;7.10;99.90;;;;;;5020371;28;20022;-60
2021/10/23 03:45:38;;;;;;;7.03;4.70;;;7.00;99.90;;;;;;4999523;28;20025;-60
2021/10/23 03:48:04;;;;;;;5.60;3.95;;;7.00;99.90;;;;;;4996414;28;20068;-60
2021/10/23 03:50:29;;;;;;;6.43;3.92;;;6.90;99.90;;;;;;5016583;28;20034;-60
2021/10/23 03:52:56;;;;;;;5.88;4.38;;;6.90;99.90;;;;;;5012627;28;20079;-60
2021/10/23 03:55:21;;;;;;;5.15;4.07;;;6.90;99.90;;;;;;5001429;28;20084;-60
2021/10/23 03:57:47;;;;;;;5.78;4.07;;;6.90;99.90;;;;;;5014027;28;20423;-60
2021/10/23 04:00:13;;;;;;;4.88;3.92;;;6.90;99.90;;;;;;4997927;28;20470;-60
2021/10/23 04:02:39;;;;;;;55.85;4.82;;;6.90;99.90;;;;;;5013809;28;20084;-60
2021/10/23 04:05:05;;;;;;;7.32;3.35;;;6.90;99.90;;;;;;5016559;28;20033;-60
2021/10/23 04:07:31;;;;;;;5.40;3.78;;;6.90;99.90;;;;;;4999288;28;20032;-60
2021/10/23 04:09:58;;;;;;;7.68;4.85;;;6.80;99.90;;;;;;5021602;28;20033;-60
2021/10/23 04:12:24;;;;;;;8.73;5.63;;;6.80;99.90;;;;;;5011819;28;20036;-60
2021/10/23 04:14:49;;;;;;;8.32;5.38;;;6.80;99.90;;;;;;4999374;28;20054;-60
2021/10/23 04:17:15;;;;;;;7.53;5.22;;;6.70;99.90;;;;;;5016926;28;20438;-60
2021/10/23 04:19:41;;;;;;;10.63;5.18;;;6.80;99.90;;;;;;5019852;28;20021;-60
2021/10/23 04:22:07;;;;;;;7.85;5.28;;;6.80;99.90;;;;;;5014299;28;20528;-60
2021/10/23 04:24:32;;;;;;;6.63;5.18;;;6.80;99.90;;;;;;5021349;28;20025;-60
2021/10/23 04:26:58;;;;;;;7.00;5.15;;;6.80;99.90;;;;;;5018060;28;20033;-60
2021/10/23 04:29:24;;;;;;;7.38;5.13;;;6.80;99.90;;;;;;5001590;28;20470;-60
2021/10/23 04:31:50;;;;;;;7.07;5.03;;;6.80;99.90;;;;;;5014439;28;20506;-60
2021/10/23 04:34:16;;;;;;;7.85;5.70;;;6.80;99.90;;;;;;5021144;28;20113;-60
2021/10/23 04:36:43;;;;;;;8.45;6.53;;;6.80;99.90;;;;;;5020218;28;20370;-60
2021/10/23 04:39:09;;;;;;;8.00;5.93;;;6.80;99.90;;;;;;5016425;28;20033;-60
2021/10/23 04:41:35;;;;;;;11.65;5.90;;;6.80;99.90;;;;;;5020205;28;20397;-60
2021/10/23 04:44:01;;;;;;;5.90;5.30;;;6.80;99.90;;;;;;5012391;28;20108;-60
2021/10/23 04:46:27;;;;;;;10.23;5.45;;;6.80;99.90;;;;;;5017269;28;20113;-60
2021/10/23 04:48:52;;;;;;;6.25;5.15;;;6.80;99.90;;;;;;5022444;28;20026;-60
2021/10/23 04:51:18;;;;;;;6.40;4.55;;;6.80;99.90;;;;;;5016380;28;20424;-60
2021/10/23 04:53:43;;;;;;;6.55;5.57;;;6.80;99.90;;;;;;5016953;28;20026;-60
2021/10/23 04:56:09;;;;;;;7.43;5.18;;;6.80;99.90;;;;;;5017977;28;20033;-61
2021/10/23 04:58:38;;;;;;;6.78;5.28;;;6.80;99.90;;;;;;5014945;28;20386;-60
2021/10/23 05:01:04;;;;;;;6.25;4.78;;;6.80;99.90;;;;;;5016694;28;20568;-60
2021/10/23 05:03:30;;;;;;;11.18;5.22;;;6.80;99.90;;;;;;5015891;28;20355;-60
2021/10/23 05:05:56;;;;;;;14.30;4.65;;;6.80;99.90;;;;;;5001200;28;20029;-60
2021/10/23 05:08:22;;;;;;;5.85;4.53;;;6.70;99.90;;;;;;5015748;28;20033;-60
2021/10/23 05:10:48;;;;;;;9.40;4.97;;;6.70;99.90;;;;;;5015903;28;20113;-60
2021/10/23 05:13:14;;;;;;;11.30;5.57;;;6.70;99.90;;;;;;5017445;28;20029;-60
2021/10/23 05:15:40;;;;;;;10.90;6.13;;;6.70;99.90;;;;;;5003141;28;20052;-60
2021/10/23 05:18:05;;;;;;;7.20;6.03;;;6.60;99.90;;;;;;5012823;28;20057;-60
2021/10/23 05:20:31;;;;;;;9.05;6.05;;;6.70;99.90;;;;;;5018732;28;20025;-60
2021/10/23 05:22:57;;;;;;;11.98;6.75;;;6.70;99.90;;;;;;5015314;28;20022;-60
2021/10/23 05:25:23;;;;;;;8.20;6.28;;;6.70;99.90;;;;;;5021779;28;20048;-60
2021/10/23 05:27:48;;;;;;;8.50;5.68;;;6.60;99.90;;;;;;4995236;28;20112;-60
2021/10/23 05:30:14;;;;;;;9.98;6.30;;;6.70;99.90;;;;;;5006214;28;20025;-60
2021/10/23 05:32:39;;;;;;;14.88;6.20;;;6.60;99.90;;;;;;5025852;28;20040;-60
2021/10/23 05:35:05;;;;;;;13.70;6.03;;;6.60;99.90;;;;;;5027158;28;20109;-60
2021/10/23 05:37:56;;;;;;;27.35;5.65;;;6.70;99.90;;;;;;5022151;28;20030;-60
2021/10/23 05:40:21;;;;;;;96.22;5.75;;;6.70;99.90;;;;;;5025063;28;20068;-60
2021/10/23 05:42:47;;;;;;;57.20;3.33;;;6.60;99.90;;;;;;5027252;28;20013;-60
2021/10/23 05:45:13;;;;;;;8.82;4.68;;;6.60;99.90;;;;;;5032450;28;20079;-60
2021/10/23 05:47:38;;;;;;;11.55;7.03;;;6.60;99.90;;;;;;5033123;28;20018;-60
2021/10/23 05:50:04;;;;;;;25.73;5.82;;;6.60;99.90;;;;;;5033802;28;20493;-60
2021/10/23 05:52:30;;;;;;;31.05;5.22;;;6.50;99.90;;;;;;5015432;28;20048;-61
2021/10/23 05:54:55;;;;;;;28.90;3.80;;;6.50;99.90;;;;;;5025176;28;20022;-60
2021/10/23 05:57:21;;;;;;;21.15;3.78;;;6.40;99.90;;;;;;5026405;28;20029;-60
2021/10/23 06:00:07;;;;;;;;;;;;;;;;;;;;;
2021/10/23 06:02:33;;;;;;;37.83;2.80;;;6.40;99.90;;;;;;5022400;28;20014;-60
2021/10/23 06:05:00;;;;;;;14.88;3.20;;;6.30;99.90;;;;;;5021689;28;20554;-60
2021/10/23 06:07:30;;;;;;;26.30;3.80;;;6.30;99.90;;;;;;5018970;28;20133;-62
2021/10/23 06:09:58;;;;;;;10.25;3.22;;;6.30;99.90;;;;;;5033272;28;20030;-60
2021/10/23 06:12:25;;;;;;;10.30;4.10;;;6.30;99.90;;;;;;5020517;28;20394;-60
2021/10/23 06:14:51;;;;;;;14.40;4.47;;;6.40;99.90;;;;;;5031961;28;20029;-60
2021/10/23 06:17:16;;;;;;;9.75;4.65;;;6.40;99.90;;;;;;5032289;28;20079;-60
2021/10/23 06:19:42;;;;;;;8.75;4.57;;;6.40;99.90;;;;;;5031140;28;20060;-61
2021/10/23 06:22:07;;;;;;;11.82;5.22;;;6.40;99.90;;;;;;5031675;28;20080;-60
2021/10/23 06:27:44;;;;;;;12.00;5.68;;;6.50;99.90;;;;;;4995801;28;20072;-60
2021/10/23 06:30:09;;;;;;;22.55;7.10;;;6.50;99.90;;;;;;5024908;28;20032;-60
2021/10/23 06:32:44;;;;;;;20.20;5.78;;;6.50;99.90;;;;;;5026592;28;20017;-62
2021/10/23 06:35:09;;;;;;;14.10;4.57;;;6.50;99.90;;;;;;5023803;28;20017;-60
2021/10/23 06:37:35;;;;;;;12.20;5.22;;;6.60;99.90;;;;;;5030059;28;20040;-60
2021/10/23 06:40:00;;;;;;;14.90;5.22;;;6.50;99.90;;;;;;5028432;28;20032;-60
2021/10/23 06:42:26;;;;;;;14.93;5.03;;;6.50;99.90;;;;;;5013958;28;20096;-60
2021/10/23 06:44:51;;;;;;;11.45;4.78;;;6.60;99.90;;;;;;5024873;28;20053;-60
2021/10/23 06:47:17;;;;;;;10.35;4.78;;;6.50;99.90;;;;;;5027878;28;20033;-60
2021/10/23 06:49:48;;;;;;;9.40;5.00;;;6.50;99.90;;;;;;5024606;28;20505;-60
2021/10/23 06:52:13;;;;;;;14.48;5.50;;;6.50;99.90;;;;;;5012608;28;20063;-60
2021/10/23 06:54:39;;;;;;;15.57;4.75;;;6.40;99.90;;;;;;5018654;28;20022;-60
2021/10/23 06:57:04;;;;;;;9.30;4.53;;;6.30;99.90;;;;;;5014758;28;20481;-60
2021/10/23 06:59:30;;;;;;;12.77;4.68;;;6.30;99.90;;;;;;5019030;28;20022;-60
2021/10/23 07:01:56;;;;;;;13.75;4.70;;;6.20;99.90;;;;;;5026415;28;20029;-60
2021/10/23 07:04:21;;;;;;;13.82;7.07;;;6.20;99.90;;;;;;4995196;28;20421;-60
2021/10/23 07:06:47;;;;;;;19.10;8.65;;;6.30;99.90;;;;;;5026403;28;20052;-60
2021/10/23 07:09:26;;;;;;;;;;;;;;;;;;;;;
2021/10/23 07:11:52;;;;;;;22.53;14.17;;;6.30;99.90;;;;;;5027371;28;20485;-60
2021/10/23 07:14:18;;;;;;;20.13;11.93;;;6.30;99.90;;;;;;5027945;28;20116;-60
2021/10/23 07:16:44;;;;;;;18.45;9.75;;;6.30;99.90;;;;;;5025243;28;20448;-60
2021/10/23 07:19:12;;;;;;;15.95;8.73;;;6.30;99.90;;;;;;5031801;28;20496;-60
2021/10/23 07:21:38;;;;;;;15.27;12.65;;;6.30;99.90;;;;;;5013559;28;20293;-60
2021/10/23 07:24:04;;;;;;;18.27;12.70;;;6.40;99.90;;;;;;5025277;28;20013;-60
2021/10/23 07:26:30;;;;;;;13.77;10.48;;;6.40;99.90;;;;;;5028862;28;20124;-60
2021/10/23 07:28:55;;;;;;;11.20;9.60;;;6.40;99.90;;;;;;5027179;28;20537;-60
2021/10/23 07:31:21;;;;;;;10.13;8.20;;;6.50;99.90;;;;;;5013718;28;20034;-60
2021/10/23 07:33:58;;;;;;;9.07;8.00;;;6.60;99.90;;;;;;5013800;28;20440;-60
2021/10/23 07:39:33;;;;;;;7.72;6.47;;;6.70;99.90;;;;;;5018994;28;20028;-60
2021/10/23 07:41:59;;;;;;;11.00;9.02;;;6.80;99.90;;;;;;5021961;28;20024;-60
2021/10/23 07:44:25;;;;;;;12.40;9.25;;;6.80;99.90;;;;;;5021884;28;20059;-60
2021/10/23 07:46:50;;;;;;;11.70;10.23;;;6.90;99.90;;;;;;5025681;28;20053;-60
2021/10/23 07:49:16;;;;;;;13.55;11.45;;;6.90;99.90;;;;;;5018390;28;20478;-60
2021/10/23 07:51:42;;;;;;;13.65;11.25;;;6.90;99.90;;;;;;5027549;28;20449;-60
2021/10/23 07:54:08;;;;;;;13.35;11.05;;;7.00;99.90;;;;;;5029281;28;20030;-61
2021/10/23 07:56:36;;;;;;;14.60;11.52;;;7.00;99.90;;;;;;5022525;28;20057;-60
2021/10/23 07:59:04;;;;;;;15.07;11.48;;;7.00;99.90;;;;;;5023058;28;20026;-60
2021/10/23 08:01:30;;;;;;;17.80;11.68;;;7.10;99.90;;;;;;5020970;28;20021;-60
2021/10/23 08:03:57;;;;;;;12.02;10.10;;;7.10;99.90;;;;;;5024703;28;20438;-60
2021/10/23 08:06:23;;;;;;;11.45;9.73;;;7.20;99.90;;;;;;5001316;28;20025;-60
2021/10/23 08:09:26;;;;;;;15.98;12.90;;;7.20;99.90;;;;;;5026426;28;20052;-60
2021/10/23 08:11:52;;;;;;;16.95;14.63;;;7.30;99.90;;;;;;4998285;28;20437;-60
2021/10/23 08:14:19;;;;;;;17.63;15.20;;;7.30;99.90;;;;;;5034244;28;20084;-60
2021/10/23 08:16:45;;;;;;;19.27;15.93;;;7.40;99.90;;;;;;5034831;28;20512;-60
2021/10/23 08:19:11;;;;;;;17.90;14.55;;;7.40;99.90;;;;;;5025016;28;20026;-60
2021/10/23 08:21:41;;;;;;;16.17;14.02;;;7.40;99.90;;;;;;5018132;28;20033;-60
2021/10/23 08:24:07;;;;;;;;;;;7.50;99.90;;;;;;5009024;28;20026;-60
2021/10/23 08:26:33;;;;;;;14.15;11.13;;;7.60;99.90;;;;;;5030465;28;20304;-60
2021/10/23 08:28:58;;;;;;;16.67;13.70;;;7.60;99.90;;;;;;5015486;28;20018;-60
2021/10/23 08:31:41;;;;;;;16.52;13.80;;;7.70;99.90;;;;;;5026688;28;20033;-60
2021/10/23 08:34:07;;;;;;;20.17;17.23;;;7.80;99.90;;;;;;4997884;28;20389;-60
2021/10/23 08:36:32;;;;;;;20.30;16.77;;;7.80;99.90;;;;;;5015490;28;20022;-60
2021/10/23 08:38:58;;;;;;;20.70;17.45;;;7.90;99.90;;;;;;5034102;28;20435;-60
2021/10/23 08:41:25;;;;;;;23.63;18.25;;;7.90;99.90;;;;;;5025830;28;20354;-60
2021/10/23 08:44:11;;;;;;;23.42;19.85;;;8.00;99.90;;;;;;5030053;28;20017;-60
2021/10/23 08:46:40;;;;;;;19.85;17.65;;;8.00;99.90;;;;;;5006749;28;20034;-60
2021/10/23 08:49:07;;;;;;;18.63;14.85;;;8.00;99.90;;;;;;5017347;28;20625;-60
2021/10/23 08:51:33;;;;;;;16.10;12.50;;;8.10;99.90;;;;;;5025147;28;20022;-60
2021/10/23 08:53:59;;;;;;;13.20;11.60;;;8.10;99.90;;;;;;5028690;28;20397;-60
2021/10/23 08:56:33;;;;;;;12.52;11.20;;;8.20;99.90;;;;;;5021941;28;20120;-60
2021/10/23 08:58:59;;;;;;;12.05;10.25;;;8.40;99.90;;;;;;5020514;28;20433;-60
2021/10/23 09:01:24;;;;;;;13.73;11.93;;;8.40;99.90;;;;;;5014859;28;20489;-60
2021/10/23 09:03:50;;;;;;;14.82;12.23;;;8.50;99.90;;;;;;5009003;28;20029;-60
2021/10/23 09:06:28;;;;;;;13.00;11.40;;;8.50;99.90;;;;;;5016559;28;20079;-60
2021/10/23 09:09:19;;;;;;;14.27;11.75;;;8.60;99.90;;;;;;5014807;28;20538;-60
2021/10/23 09:11:46;;;;;;;12.27;10.80;;;8.70;99.90;;;;;;5009765;28;20099;-60
2021/10/23 09:14:37;;;;;;;16.25;12.05;;;8.70;99.90;;;;;;5014584;28;20021;-60
2021/10/23 09:18:01;;;;;;;13.38;11.35;;;8.80;99.90;;;;;;5022920;28;20045;-60
2021/10/23 09:20:27;;;;;;;15.02;12.70;;;8.80;99.90;;;;;;4987069;28;20034;-60
2021/10/23 09:22:54;;;;;;;21.95;17.48;;;8.80;99.90;;;;;;5027675;28;20036;-60
2021/10/23 09:25:30;;;;;;;28.40;19.27;;;8.80;99.90;;;;;;5032279;28;20065;-60
2021/10/23 09:28:00;;;;;;;25.08;20.60;;;8.80;99.90;;;;;;5034134;28;20013;-60
2021/10/23 09:31:18;;;;;;;31.25;23.52;;;8.80;99.90;;;;;;5018006;28;20026;-60
2021/10/23 09:33:59;;;;;;;32.40;25.90;;;8.90;99.90;;;;;;4997017;28;20085;-60
2021/10/23 09:36:24;;;;;;;35.92;26.50;;;8.90;99.90;;;;;;5028654;28;20433;-60
2021/10/23 09:39:00;;;;;;;32.35;26.70;;;9.00;99.90;;;;;;5013464;28;20544;-60
2021/10/23 09:41:26;;;;;;;33.53;26.23;;;9.10;99.90;;;;;;5031975;28;20076;-60
2021/10/23 09:44:12;;;;;;;29.48;25.58;;;9.20;99.90;;;;;;5026850;28;20485;-60
2021/10/23 09:46:53;;;;;;;29.25;25.35;;;9.40;99.90;;;;;;5013639;28;20128;-60
2021/10/23 09:49:21;;;;;;;34.70;26.13;;;9.50;99.90;;;;;;5022026;28;20409;-60
2021/10/23 09:51:47;;;;;;;32.05;26.17;;;9.70;99.90;;;;;;4999201;28;20031;-60
2021/10/23 09:54:16;;;;;;;31.30;25.40;;;9.80;99.90;;;;;;5023953;28;20026;-60
2021/10/23 09:56:50;;;;;;;30.05;24.70;;;9.90;99.90;;;;;;5015550;28;20109;-60
2021/10/23 09:59:25;;;;;;;33.30;26.10;;;10.00;99.90;;;;;;5024394;28;20025;-60
2021/10/23 10:02:12;;;;;;;33.63;25.50;;;10.10;99.90;;;;;;5015778;28;20018;-60
2021/10/23 10:05:09;;;;;;;34.95;27.58;;;10.20;99.90;;;;;;5003641;28;20026;-60
2021/10/23 10:07:34;;;;;;;31.15;25.77;;;10.30;99.90;;;;;;5013313;28;20025;-60
2021/10/23 10:10:01;;;;;;;35.30;27.98;;;10.40;99.90;;;;;;5013755;28;20101;-60
2021/10/23 10:12:29;;;;;;;35.90;27.33;;;10.40;99.90;;;;;;5018865;28;20075;-60
2021/10/23 10:14:55;;;;;;;34.50;27.83;;;10.50;99.90;;;;;;5021452;28;20022;-60
2021/10/23 10:17:21;;;;;;;34.20;26.80;;;10.50;99.90;;;;;;5017054;28;20024;-60
2021/10/23 10:19:47;;;;;;;38.55;26.70;;;10.50;99.90;;;;;;5022996;28;20053;-60
2021/10/23 10:22:13;;;;;;;35.25;28.05;;;10.60;99.90;;;;;;5013260;28;20033;-60
2021/10/23 10:29:11;;;;;;;28.90;24.63;;;10.80;99.90;;;;;;4948816;28;20522;-60
2021/10/23 10:32:33;;;;;;;;;;;;;;;;;;;;;
2021/10/23 10:43:04;;;;;;;27.00;19.05;;;11.70;99.90;;;;;;5007417;28;20425;-60
2021/10/23 10:46:19;;;;;;;23.63;19.15;;;11.80;99.90;;;;;;4989403;28;20513;-60
2021/10/23 10:48:47;;;;;;;26.77;21.27;;;11.80;99.90;;;;;;4940764;28;20129;-60
2021/10/23 10:51:16;;;;;;;30.65;25.77;;;11.90;99.90;;;;;;4999464;28;20152;-60
2021/10/23 10:56:53;;;;;;;33.40;26.55;;;11.80;99.90;;;;;;4971875;28;20041;-60
2021/10/23 10:59:50;;;;;;;33.58;26.75;;;11.80;99.90;;;;;;4995989;28;20037;-60
2021/10/23 11:02:30;;;;;;;29.50;24.00;;;11.90;99.90;;;;;;5009848;28;20026;-61
2021/10/23 11:05:15;;;;;;;28.45;20.95;;;11.90;99.90;;;;;;5010126;28;20505;-60
2021/10/23 11:08:01;;;;;;;25.05;18.60;;;11.90;99.90;;;;;;4986447;28;20034;-60
2021/10/23 11:10:52;;;;;;;25.30;18.02;;;12.00;99.90;;;;;;4993218;28;20097;-60
2021/10/23 11:13:31;;;;;;;24.55;16.63;;;12.00;99.90;;;;;;4994596;28;20385;-60
2021/10/23 11:15:57;;;;;;;23.27;16.80;;;12.10;99.90;;;;;;5017490;28;20029;-60
2021/10/23 11:18:23;;;;;;;26.30;19.10;;;12.00;99.90;;;;;;5013996;28;20089;-60
2021/10/23 11:20:50;;;;;;;26.38;19.17;;;12.00;99.90;;;;;;5019123;28;20113;-60
2021/10/23 11:23:21;;;;;;;24.42;18.38;;;12.00;99.90;;;;;;5002401;28;20034;-60
2021/10/23 11:26:16;;;;;;;;;;;;;;;;;;;;;
2021/10/23 11:28:42;;;;;;;26.75;19.00;;;12.20;99.90;;;;;;5033403;28;20026;-60
2021/10/23 11:31:22;;;;;;;24.15;16.00;;;12.30;99.90;;;;;;5029694;28;20136;-60
2021/10/23 11:34:00;;;;;;;21.73;15.45;;;12.40;99.90;;;;;;5035894;28;20018;-60
2021/10/23 11:36:32;;;;;;;22.63;16.48;;;12.40;99.60;;;;;;5026245;28;20040;-60
2021/10/23 11:39:18;;;;;;;29.42;18.05;;;12.40;99.20;;;;;;5035093;28;20049;-60
2021/10/23 11:42:10;;;;;;;28.17;18.90;;;12.40;99.10;;;;;;5032737;28;20511;-60
2021/10/23 11:44:35;;;;;;;31.25;19.23;;;12.40;98.70;;;;;;5036288;28;20029;-60
2021/10/23 11:47:01;;;;;;;30.35;19.65;;;12.30;98.40;;;;;;5016401;28;20079;-60
2021/10/23 11:49:32;;;;;;;25.13;18.08;;;12.30;98.70;;;;;;5037162;28;20033;-60
2021/10/23 11:51:58;;;;;;;24.27;17.42;;;12.40;98.80;;;;;;5015812;28;20078;-60
2021/10/23 11:54:25;;;;;;;20.88;15.70;;;12.40;98.50;;;;;;5030909;28;20075;-60
2021/10/23 11:56:51;;;;;;;24.52;17.10;;;12.60;98.40;;;;;;5032536;28;20029;-60
2021/10/23 11:59:17;;;;;;;24.92;18.15;;;12.70;98.40;;;;;;5013825;28;20477;-61
2021/10/23 12:01:43;;;;;;;22.35;16.58;;;12.80;98.20;;;;;;5035443;28;20026;-61
2021/10/23 12:04:08;;;;;;;22.13;17.83;;;12.80;98.20;;;;;;5034277;28;20504;-61
2021/10/23 12:06:40;;;;;;;22.00;17.23;;;12.90;98.30;;;;;;5037069;28;20035;-61
2021/10/23 12:09:42;;;;;;;;;;;;;;;;;;;;;
2021/10/23 12:12:09;;;;;;;18.98;13.52;;;13.10;98.00;;;;;;5037835;28;20025;-60
2021/10/23 12:14:36;;;;;;;21.45;14.60;;;13.20;97.70;;;;;;5036062;28;20141;-60
2021/10/23 12:17:02;;;;;;;17.70;12.95;;;13.20;97.40;;;;;;5030415;28;20486;-60
2021/10/23 12:19:39;;;;;;;21.20;14.30;;;13.30;97.30;;;;;;5031374;28;20025;-60
2021/10/23 12:22:04;;;;;;;20.30;14.10;;;13.30;96.80;;;;;;5034326;28;20009;-61
2021/10/23 12:24:38;;;;;;;18.52;14.23;;;13.20;96.70;;;;;;5030160;28;20092;-60
2021/10/23 12:27:21;;;;;;;19.75;13.88;;;13.20;96.90;;;;;;5029120;28;20405;-61
2021/10/23 12:29:50;;;;;;;20.63;14.80;;;13.20;96.80;;;;;;5024905;28;20482;-61
2021/10/23 12:32:21;;;;;;;19.35;14.65;;;13.20;96.70;;;;;;5025524;28;20030;-60
2021/10/23 12:34:58;;;;;;;16.63;12.73;;;13.20;96.50;;;;;;5029107;28;20536;-61
2021/10/23 12:37:48;;;;;;;;;;;;;;;;;;;;;
2021/10/23 12:40:59;;;;;;;15.02;9.10;;;13.30;96.20;;;;;;5025349;28;20037;-60
2021/10/23 12:43:25;;;;;;;15.70;11.05;;;13.30;95.00;;;;;;5022463;28;20049;-61
2021/10/23 12:45:53;;;;;;;14.32;10.45;;;13.20;94.80;;;;;;5028030;28;20033;-61
2021/10/23 12:48:20;;;;;;;15.98;11.43;;;13.30;94.80;;;;;;5031527;28;20417;-61
2021/10/23 12:50:53;;;;;;;17.05;11.07;;;13.30;94.80;;;;;;5012600;28;20481;-61
2021/10/23 12:53:19;;;;;;;16.63;11.40;;;13.40;94.70;;;;;;5030397;28;20109;-61
2021/10/23 12:55:45;;;;;;;16.13;9.70;;;13.30;94.90;;;;;;5032230;28;20104;-61
2021/10/23 12:58:10;;;;;;;13.98;9.85;;;13.40;94.90;;;;;;5033484;28;20029;-61
2021/10/23 13:00:39;;;;;;;16.38;10.52;;;13.40;94.80;;;;;;5034639;28;20104;-61
2021/10/23 13:03:05;;;;;;;16.55;10.43;;;13.40;94.80;;;;;;5016861;28;20049;-60
2021/10/23 13:05:30;;;;;;;15.18;10.43;;;13.40;94.30;;;;;;5034264;28;20402;-61
2021/10/23 13:08:10;;;;;;;12.75;9.77;;;13.40;93.90;;;;;;4996263;28;20021;-61
2021/10/23 13:10:35;;;;;;;13.90;9.55;;;13.40;93.90;;;;;;5034068;28;20486;-61
2021/10/23 13:13:01;;;;;;;15.15;10.57;;;13.50;94.10;;;;;;5033819;28;20038;-61
2021/10/23 13:15:28;;;;;;;13.20;9.73;;;13.60;93.70;;;;;;5033687;28;20026;-61
2021/10/23 13:18:00;;;;;;;15.45;10.25;;;13.50;93.60;;;;;;5016371;28;20038;-61
2021/10/23 13:20:25;;;;;;;17.35;10.45;;;13.60;93.80;;;;;;5032081;28;20029;-61
2021/10/23 13:23:21;;;;;;;15.30;9.85;;;13.60;93.50;;;;;;5021632;28;20036;-61
2021/10/23 13:25:46;;;;;;;16.55;9.13;;;13.70;93.60;;;;;;5017427;28;20022;-61